Time;durP1;ratioP1;P1;durP2;ratioP2;P2;SDS_P1;SDS_P2;PMS_P1;PMS_P2;Temp;Humidity;BMP_temperature;BMP_pressure;BME280_temperature;BME280_humidity;BME280_pressure;Samples;Min_cycle;Max_cycle;Signal;HPM_P1;HPM_P2
2021/09/06 00:01:54;;;;;;;13.77;9.82;;;18.00;77.00;;;;;;6222424;28;20474;-79
2021/09/06 00:04:55;;;;;;;11.67;8.90;;;18.00;77.20;;;;;;6223927;28;20526;-78
2021/09/06 00:07:57;;;;;;;10.70;7.97;;;18.00;77.00;;;;;;6217224;28;21013;-78
2021/09/06 00:11:06;;;;;;;11.40;8.85;;;17.90;77.30;;;;;;6200419;28;20426;-78
2021/09/06 00:14:07;;;;;;;9.60;7.70;;;17.90;77.50;;;;;;6198304;28;20956;-78
2021/09/06 00:17:09;;;;;;;8.97;7.47;;;17.80;77.70;;;;;;6198390;28;20960;-79
2021/09/06 00:20:12;;;;;;;11.43;8.93;;;17.80;78.00;;;;;;6197537;28;20935;-77
2021/09/06 00:23:14;;;;;;;13.25;9.27;;;17.70;77.80;;;;;;6197853;28;20422;-78
2021/09/06 00:26:17;;;;;;;10.48;8.90;;;17.70;78.30;;;;;;6198151;28;20430;-78
2021/09/06 00:29:18;;;;;;;12.13;8.50;;;17.60;78.30;;;;;;6198520;28;21025;-78
2021/09/06 00:32:20;;;;;;;10.93;7.87;;;17.60;78.50;;;;;;6198556;28;20794;-78
2021/09/06 00:35:22;;;;;;;11.18;8.90;;;17.50;78.70;;;;;;6197566;28;20422;-78
2021/09/06 00:38:25;;;;;;;12.10;9.40;;;17.40;78.90;;;;;;6198763;28;20509;-79
2021/09/06 00:41:28;;;;;;;9.60;8.13;;;17.30;78.70;;;;;;6197848;28;20521;-78
2021/09/06 00:44:30;;;;;;;11.97;8.00;;;17.20;78.80;;;;;;6197329;28;20960;-79
2021/09/06 00:47:34;;;;;;;12.55;9.00;;;17.10;78.90;;;;;;6198059;28;20899;-78
2021/09/06 00:50:37;;;;;;;10.20;8.95;;;17.10;79.00;;;;;;6197531;28;20514;-78
2021/09/06 00:53:39;;;;;;;9.00;8.00;;;17.00;79.00;;;;;;6210860;28;20504;-79
2021/09/06 00:56:43;;;;;;;13.37;9.23;;;17.00;79.20;;;;;;6221815;28;20505;-76
2021/09/06 00:59:44;;;;;;;10.50;9.00;;;16.90;79.20;;;;;;6219276;28;20941;-77
2021/09/06 01:02:46;;;;;;;19.60;10.00;;;16.90;79.00;;;;;;6219147;28;20456;-76
2021/09/06 01:05:49;;;;;;;11.10;8.98;;;16.80;79.00;;;;;;6219680;28;20458;-77
2021/09/06 01:08:50;;;;;;;12.93;10.27;;;16.70;79.10;;;;;;6219037;28;20428;-77
2021/09/06 01:11:53;;;;;;;12.57;9.80;;;16.70;79.00;;;;;;6219037;28;20491;-77
2021/09/06 01:14:55;;;;;;;12.80;9.27;;;16.80;79.30;;;;;;6219380;28;20562;-77
2021/09/06 01:17:57;;;;;;;21.73;9.50;;;16.50;79.10;;;;;;6219674;28;20493;-75
2021/09/06 01:21:00;;;;;;;11.82;9.13;;;16.50;79.10;;;;;;6219494;28;20441;-77
2021/09/06 01:24:01;;;;;;;14.38;9.38;;;16.40;79.30;;;;;;6219794;28;20491;-77
2021/09/06 01:27:05;;;;;;;12.25;9.95;;;16.40;79.30;;;;;;6219263;28;20491;-77
2021/09/06 01:30:08;;;;;;;15.07;10.33;;;16.40;79.30;;;;;;6219996;28;20436;-77
2021/09/06 01:33:10;;;;;;;12.27;9.23;;;16.40;79.00;;;;;;6224364;28;20529;-77
2021/09/06 01:36:12;;;;;;;11.68;9.05;;;16.40;79.30;;;;;;6223202;28;20563;-77
2021/09/06 01:39:13;;;;;;;14.25;9.80;;;16.30;79.10;;;;;;6223287;28;20500;-77
2021/09/06 01:42:17;;;;;;;16.88;10.05;;;16.30;79.00;;;;;;6223155;28;20482;-77
2021/09/06 01:45:19;;;;;;;14.70;9.65;;;16.20;78.70;;;;;;6224471;28;20482;-77
2021/09/06 01:48:21;;;;;;;10.40;9.23;;;16.20;78.90;;;;;;6223379;28;20454;-77
2021/09/06 01:51:23;;;;;;;10.67;8.17;;;16.20;78.90;;;;;;6223101;28;20995;-77
2021/09/06 01:54:24;;;;;;;16.75;8.27;;;16.10;79.80;;;;;;6222922;28;20421;-77
2021/09/06 01:57:28;;;;;;;9.88;8.07;;;16.10;79.60;;;;;;6223622;28;20612;-77
2021/09/06 02:00:30;;;;;;;12.95;8.40;;;16.10;79.70;;;;;;6222254;28;20446;-76
2021/09/06 02:03:32;;;;;;;10.48;8.27;;;16.10;79.60;;;;;;6222732;28;20445;-77
2021/09/06 02:06:33;;;;;;;11.80;8.70;;;16.10;80.10;;;;;;6222280;28;20514;-77
2021/09/06 02:09:35;;;;;;;10.07;8.93;;;16.00;80.10;;;;;;6221882;28;20432;-78
2021/09/06 02:12:38;;;;;;;10.18;7.95;;;16.00;80.60;;;;;;6222361;28;20432;-76
2021/09/06 02:15:40;;;;;;;9.93;8.07;;;16.00;80.60;;;;;;6222335;28;20941;-77
2021/09/06 02:18:42;;;;;;;16.97;9.10;;;16.00;80.40;;;;;;6222333;28;20448;-76
2021/09/06 02:21:46;;;;;;;11.48;8.15;;;16.00;80.20;;;;;;6222463;28;20599;-77
2021/09/06 02:24:47;;;;;;;10.40;8.43;;;16.00;79.90;;;;;;6222912;28;20440;-76
2021/09/06 02:27:51;;;;;;;10.20;8.55;;;16.10;79.70;;;;;;6222235;28;20898;-77
2021/09/06 02:30:52;;;;;;;10.65;8.50;;;15.90;79.60;;;;;;6222553;28;20488;-77
2021/09/06 02:33:54;;;;;;;8.93;7.45;;;15.80;79.30;;;;;;6222042;28;20440;-77
2021/09/06 02:36:56;;;;;;;8.13;7.20;;;15.80;79.20;;;;;;6222504;28;20515;-76
2021/09/06 02:39:58;;;;;;;12.38;8.43;;;15.80;79.30;;;;;;6221613;28;20444;-77
2021/09/06 02:43:01;;;;;;;11.63;8.27;;;15.70;79.50;;;;;;6221666;28;20886;-77
2021/09/06 02:46:03;;;;;;;11.90;8.95;;;15.60;79.30;;;;;;6221844;28;20555;-77
2021/09/06 02:49:05;;;;;;;10.70;7.67;;;15.60;79.50;;;;;;6222328;28;20515;-77
2021/09/06 02:52:07;;;;;;;11.65;8.20;;;15.60;79.40;;;;;;6222526;28;20499;-77
2021/09/06 02:55:10;;;;;;;8.93;7.47;;;15.60;79.60;;;;;;6221558;28;20475;-77
2021/09/06 02:58:13;;;;;;;11.80;7.83;;;15.50;79.70;;;;;;6221957;28;20413;-77
2021/09/06 03:01:15;;;;;;;9.32;8.35;;;15.50;80.00;;;;;;6222772;28;20472;-75
2021/09/06 03:04:17;;;;;;;8.73;7.82;;;15.50;79.90;;;;;;6221780;28;20500;-77
2021/09/06 03:07:19;;;;;;;10.57;7.68;;;15.50;79.80;;;;;;6221799;28;20563;-77
2021/09/06 03:10:20;;;;;;;9.52;7.20;;;15.50;79.60;;;;;;6221456;28;20502;-77
2021/09/06 03:13:23;;;;;;;15.55;8.80;;;15.40;79.90;;;;;;6221064;28;20527;-77
2021/09/06 03:16:25;;;;;;;9.77;8.00;;;15.40;79.60;;;;;;6221348;28;20930;-77
2021/09/06 03:19:27;;;;;;;8.77;7.82;;;15.40;79.70;;;;;;6220850;28;20540;-77
2021/09/06 03:22:29;;;;;;;12.32;7.72;;;15.30;79.70;;;;;;6221097;28;20441;-76
2021/09/06 03:25:31;;;;;;;13.52;8.65;;;15.30;79.50;;;;;;6221818;28;20487;-77
2021/09/06 03:28:34;;;;;;;12.35;8.23;;;15.20;79.20;;;;;;6221409;28;20498;-76
2021/09/06 03:31:36;;;;;;;10.95;8.93;;;15.20;79.40;;;;;;6221169;28;20448;-76
2021/09/06 03:34:38;;;;;;;9.00;8.10;;;15.10;79.50;;;;;;6220705;28;20428;-77
2021/09/06 03:37:40;;;;;;;10.45;7.68;;;15.10;79.70;;;;;;6220674;28;20444;-77
2021/09/06 03:40:42;;;;;;;11.52;8.55;;;15.00;79.90;;;;;;6221104;28;20462;-77
2021/09/06 03:43:45;;;;;;;9.55;7.63;;;15.00;79.80;;;;;;6220878;28;20422;-77
2021/09/06 03:46:47;;;;;;;9.65;8.45;;;14.90;80.00;;;;;;6220092;28;20531;-77
2021/09/06 03:49:49;;;;;;;9.15;8.23;;;14.90;79.90;;;;;;6220895;28;20523;-77
2021/09/06 03:52:51;;;;;;;9.48;8.57;;;14.90;79.60;;;;;;6220223;28;21041;-77
2021/09/06 03:55:53;;;;;;;10.02;8.00;;;14.90;79.90;;;;;;6220096;28;21035;-76
2021/09/06 03:58:56;;;;;;;8.95;7.60;;;14.90;80.10;;;;;;6220124;28;20492;-77
2021/09/06 04:01:57;;;;;;;9.02;8.13;;;14.80;79.90;;;;;;6220397;28;20431;-76
2021/09/06 04:05:00;;;;;;;8.80;7.47;;;14.90;80.00;;;;;;6220739;28;20634;-76
2021/09/06 04:08:01;;;;;;;14.80;9.05;;;14.80;80.60;;;;;;6220095;28;20417;-76
2021/09/06 04:11:03;;;;;;;17.00;8.35;;;14.80;80.10;;;;;;6220005;28;20425;-76
2021/09/06 04:14:06;;;;;;;9.43;8.00;;;15.00;80.20;;;;;;6216061;28;20913;-77
2021/09/06 04:17:08;;;;;;;10.15;7.85;;;14.80;80.60;;;;;;6219939;28;20486;-77
2021/09/06 04:20:11;;;;;;;10.43;9.00;;;14.80;79.90;;;;;;6219555;28;20899;-77
2021/09/06 04:23:13;;;;;;;10.23;8.20;;;14.70;79.90;;;;;;6219667;28;20959;-75
2021/09/06 04:26:15;;;;;;;10.75;7.45;;;14.80;79.90;;;;;;6219188;28;20507;-77
2021/09/06 04:29:18;;;;;;;15.07;7.97;;;14.80;79.90;;;;;;6220507;28;20439;-76
2021/09/06 04:32:20;;;;;;;11.10;7.65;;;14.80;79.90;;;;;;6219449;28;20421;-77
2021/09/06 04:35:22;;;;;;;10.80;8.48;;;14.80;79.70;;;;;;6218988;28;20421;-77
2021/09/06 04:38:23;;;;;;;9.80;8.10;;;14.70;79.40;;;;;;6219283;28;20424;-77
2021/09/06 04:41:26;;;;;;;9.60;8.30;;;14.80;80.00;;;;;;6219685;28;20437;-77
2021/09/06 04:44:29;;;;;;;10.00;7.78;;;14.70;80.00;;;;;;6221767;28;20980;-78
2021/09/06 04:47:31;;;;;;;15.88;8.38;;;14.70;79.90;;;;;;6223428;28;20499;-76
2021/09/06 04:50:33;;;;;;;12.07;8.68;;;14.70;79.80;;;;;;6222531;28;20462;-76
2021/09/06 04:53:35;;;;;;;12.73;9.82;;;14.70;79.70;;;;;;6222447;28;20428;-76
2021/09/06 04:56:37;;;;;;;10.30;8.85;;;14.70;79.50;;;;;;6223278;28;20432;-78
2021/09/06 04:59:40;;;;;;;10.02;7.20;;;14.70;79.60;;;;;;6223316;28;20903;-77
2021/09/06 05:02:42;;;;;;;11.37;8.43;;;14.70;79.60;;;;;;6224212;28;20405;-77
2021/09/06 05:05:44;;;;;;;11.35;8.32;;;14.70;79.50;;;;;;6227513;28;20436;-76
2021/09/06 05:08:46;;;;;;;10.07;8.38;;;14.70;79.10;;;;;;6229690;28;20440;-76
2021/09/06 05:11:48;;;;;;;10.73;8.13;;;14.70;79.60;;;;;;6228042;28;21052;-76
2021/09/06 05:14:51;;;;;;;10.35;8.10;;;14.70;79.80;;;;;;6226344;28;20511;-77
2021/09/06 05:17:55;;;;;;;10.00;7.95;;;14.70;79.50;;;;;;6227820;28;20914;-76
2021/09/06 05:20:57;;;;;;;12.88;8.20;;;14.70;79.30;;;;;;6229373;28;20791;-78
2021/09/06 05:23:59;;;;;;;10.40;8.43;;;14.80;79.50;;;;;;6226731;28;20472;-78
2021/09/06 05:27:00;;;;;;;11.07;8.45;;;14.90;79.20;;;;;;6229341;28;20488;-76
2021/09/06 05:30:04;;;;;;;11.25;8.73;;;15.00;78.90;;;;;;6227794;28;20475;-77
2021/09/06 05:33:06;;;;;;;9.32;7.82;;;15.10;78.60;;;;;;6227177;28;20432;-78
2021/09/06 05:36:10;;;;;;;9.23;7.85;;;15.20;78.00;;;;;;6226670;28;20427;-78
2021/09/06 05:39:12;;;;;;;8.90;7.95;;;15.30;77.80;;;;;;6227377;28;20423;-78
2021/09/06 05:42:14;;;;;;;11.10;7.78;;;15.40;77.80;;;;;;6227562;28;20450;-78
2021/09/06 05:45:17;;;;;;;10.10;6.88;;;15.60;77.40;;;;;;6227796;28;20522;-77
2021/09/06 05:48:19;;;;;;;10.77;7.00;;;15.70;77.60;;;;;;6227556;28;20443;-78
2021/09/06 05:51:21;;;;;;;10.98;7.28;;;15.90;76.70;;;;;;6229581;28;20865;-78
2021/09/06 05:54:23;;;;;;;8.75;6.90;;;16.10;76.30;;;;;;6229108;28;20452;-77
2021/09/06 05:57:24;;;;;;;11.07;7.38;;;16.30;75.80;;;;;;6229749;28;20941;-77
2021/09/06 06:00:28;;;;;;;9.67;7.30;;;16.50;75.50;;;;;;6229705;28;20492;-77
2021/09/06 06:03:29;;;;;;;13.98;7.18;;;16.80;75.20;;;;;;6229593;28;20474;-78
2021/09/06 06:06:31;;;;;;;10.60;7.97;;;16.90;74.90;;;;;;6229387;28;20487;-77
2021/09/06 06:09:33;;;;;;;11.52;8.10;;;17.10;74.40;;;;;;6229229;28;20499;-77
2021/09/06 06:12:35;;;;;;;11.75;7.55;;;17.40;74.00;;;;;;6227765;28;20490;-78
2021/09/06 06:15:38;;;;;;;8.55;7.50;;;17.60;73.40;;;;;;6224157;28;20448;-77
2021/09/06 06:18:40;;;;;;;9.32;7.70;;;17.80;73.10;;;;;;6225173;28;20421;-78
2021/09/06 06:21:42;;;;;;;10.05;7.03;;;18.00;72.30;;;;;;6225390;28;20518;-78
2021/09/06 06:24:44;;;;;;;9.30;6.93;;;18.20;72.50;;;;;;6225943;28;20917;-77
2021/09/06 06:27:45;;;;;;;12.33;7.17;;;18.50;72.00;;;;;;6224107;28;20979;-77
2021/09/06 06:30:49;;;;;;;9.35;7.60;;;18.70;71.20;;;;;;6226758;28;20455;-77
2021/09/06 06:33:50;;;;;;;9.30;7.67;;;18.90;70.40;;;;;;6226504;28;20523;-77
2021/09/06 06:36:52;;;;;;;10.57;7.28;;;19.10;69.20;;;;;;6227219;28;20437;-78
2021/09/06 06:39:54;;;;;;;9.57;7.47;;;19.30;68.70;;;;;;6225336;28;20491;-77
2021/09/06 06:42:56;;;;;;;10.30;6.63;;;19.50;69.00;;;;;;6225909;28;20910;-77
2021/09/06 06:46:00;;;;;;;9.23;7.03;;;19.70;68.20;;;;;;6226333;28;21103;-77
2021/09/06 06:49:02;;;;;;;9.02;7.28;;;19.90;67.40;;;;;;6227610;28;20476;-77
2021/09/06 06:52:04;;;;;;;11.43;7.50;;;20.10;67.10;;;;;;6226829;28;20444;-77
2021/09/06 06:55:07;;;;;;;13.48;8.23;;;20.30;65.70;;;;;;6225238;28;20500;-78
2021/09/06 06:58:09;;;;;;;7.75;6.65;;;20.50;64.80;;;;;;6261140;22;20414;-74
2021/09/06 07:01:12;;;;;;;8.80;6.57;;;20.80;63.90;;;;;;6242892;28;20463;-74
2021/09/06 07:04:14;;;;;;;6.87;6.17;;;21.00;63.30;;;;;;6226991;28;20545;-74
2021/09/06 07:07:16;;;;;;;10.43;6.30;;;21.20;62.60;;;;;;6224429;28;20547;-74
2021/09/06 07:10:18;;;;;;;10.02;7.22;;;21.60;61.90;;;;;;6197476;28;20449;-75
2021/09/06 07:13:19;;;;;;;11.40;7.18;;;21.90;61.20;;;;;;6197175;28;20465;-75
2021/09/06 07:16:23;;;;;;;10.63;6.13;;;22.20;60.30;;;;;;6215667;28;20533;-75
2021/09/06 07:19:24;;;;;;;10.13;6.72;;;22.40;59.00;;;;;;6220859;28;20425;-77
2021/09/06 07:22:26;;;;;;;8.45;5.82;;;22.70;58.20;;;;;;6221045;28;20549;-74
2021/09/06 07:25:29;;;;;;;7.40;5.90;;;22.90;57.70;;;;;;6220925;28;20918;-75
2021/09/06 07:28:31;;;;;;;8.80;6.43;;;23.10;56.90;;;;;;6220001;28;20432;-75
2021/09/06 07:31:34;;;;;;;12.38;6.53;;;23.40;56.30;;;;;;6220601;28;20478;-74
2021/09/06 07:34:36;;;;;;;8.73;5.90;;;23.60;55.70;;;;;;6211504;28;20427;-75
2021/09/06 07:37:39;;;;;;;8.43;6.05;;;23.80;54.40;;;;;;6220883;28;20526;-75
2021/09/06 07:40:40;;;;;;;9.43;5.78;;;24.00;54.00;;;;;;6220740;28;20466;-75
2021/09/06 07:43:44;;;;;;;9.20;6.07;;;24.20;53.10;;;;;;6220904;28;20416;-75
2021/09/06 07:46:47;;;;;;;8.43;6.57;;;24.40;52.50;;;;;;6219951;28;20421;-75
2021/09/06 07:49:49;;;;;;;7.45;5.75;;;24.60;51.80;;;;;;6220600;28;20436;-75
2021/09/06 07:52:51;;;;;;;7.05;6.07;;;24.80;51.80;;;;;;6220666;28;20490;-75
2021/09/06 07:55:53;;;;;;;9.93;6.00;;;25.00;50.90;;;;;;6219453;28;20978;-75
2021/09/06 07:58:54;;;;;;;8.65;5.70;;;25.20;50.00;;;;;;6220271;28;20423;-75
2021/09/06 08:01:57;;;;;;;7.68;5.82;;;25.30;49.60;;;;;;6219794;28;20424;-75
2021/09/06 08:04:59;;;;;;;9.00;5.95;;;25.40;49.80;;;;;;6211466;28;20527;-75
2021/09/06 08:08:01;;;;;;;7.50;5.80;;;25.60;49.70;;;;;;6220003;28;20539;-75
2021/09/06 08:11:03;;;;;;;7.57;5.53;;;25.80;48.80;;;;;;6219974;28;20444;-74
2021/09/06 08:14:05;;;;;;;8.55;6.10;;;26.00;47.80;;;;;;6218910;28;20475;-75
2021/09/06 08:17:08;;;;;;;6.75;6.05;;;26.30;48.10;;;;;;6218497;28;20443;-75
2021/09/06 08:20:12;;;;;;;6.90;5.43;;;26.50;47.60;;;;;;6219626;28;20906;-75
2021/09/06 08:23:14;;;;;;;9.52;5.45;;;26.70;46.90;;;;;;6219626;28;20464;-75
2021/09/06 08:26:16;;;;;;;12.18;5.72;;;26.70;46.90;;;;;;6219161;28;20498;-75
2021/09/06 08:29:18;;;;;;;7.80;5.18;;;26.70;47.80;;;;;;6220133;28;20519;-75
2021/09/06 08:32:22;;;;;;;6.90;4.90;;;26.80;46.90;;;;;;6219127;28;20417;-75
2021/09/06 08:35:24;;;;;;;6.80;4.78;;;27.00;46.70;;;;;;6209954;28;20420;-74
2021/09/06 08:38:26;;;;;;;7.07;5.22;;;27.00;46.00;;;;;;6219489;28;20468;-75
2021/09/06 08:41:27;;;;;;;5.93;5.32;;;27.20;46.20;;;;;;6219516;28;20480;-75
2021/09/06 08:44:29;;;;;;;6.75;5.18;;;27.30;46.20;;;;;;6218945;28;20570;-75
2021/09/06 08:47:33;;;;;;;8.20;5.65;;;27.50;45.70;;;;;;6219262;28;20416;-76
2021/09/06 08:50:35;;;;;;;11.82;5.80;;;27.80;45.00;;;;;;6219529;28;20417;-75
2021/09/06 08:53:37;;;;;;;6.10;5.50;;;28.00;44.90;;;;;;6218584;28;20613;-75
2021/09/06 08:56:39;;;;;;;9.35;5.28;;;28.10;45.20;;;;;;6219073;28;20582;-75
2021/09/06 08:59:44;;;;;;;7.93;5.47;;;28.30;43.80;;;;;;6218886;28;20420;-75
2021/09/06 09:02:47;;;;;;;9.02;5.95;;;28.50;43.10;;;;;;6216763;28;20439;-75
2021/09/06 09:06:00;;;;;;;5.80;5.20;;;28.80;43.60;;;;;;6212701;28;21213;-75
2021/09/06 09:09:01;;;;;;;8.80;6.10;;;29.00;43.40;;;;;;6219556;28;20444;-75
2021/09/06 09:12:09;;;;;;;9.38;5.38;;;29.20;43.30;;;;;;6218873;28;20511;-75
2021/09/06 09:15:11;;;;;;;5.50;5.00;;;29.40;42.00;;;;;;6218787;28;20921;-75
2021/09/06 09:18:23;;;;;;;8.38;5.57;;;29.60;42.90;;;;;;6205637;28;20442;-75
2021/09/06 09:21:25;;;;;;;6.55;5.43;;;29.70;41.70;;;;;;6195001;28;20911;-75
2021/09/06 09:24:27;;;;;;;8.65;5.43;;;29.80;42.00;;;;;;6194190;28;21077;-75
2021/09/06 09:27:34;;;;;;;5.95;5.10;;;29.90;41.80;;;;;;6194732;28;20557;-76
2021/09/06 09:30:36;;;;;;;5.63;4.97;;;30.10;41.30;;;;;;6194607;28;20541;-75
2021/09/06 09:33:45;;;;;;;9.15;5.43;;;30.20;39.90;;;;;;6209865;28;20462;-75
2021/09/06 09:36:47;;;;;;;9.68;5.18;;;29.90;40.10;;;;;;6218901;28;20432;-75
2021/09/06 09:39:54;;;;;;;7.57;5.87;;;29.70;40.80;;;;;;6218979;28;20420;-75
2021/09/06 09:42:56;;;;;;;7.32;5.28;;;29.60;41.60;;;;;;6218606;28;20452;-75
2021/09/06 09:46:02;;;;;;;6.30;5.70;;;29.60;41.60;;;;;;6217770;28;20563;-75
2021/09/06 09:49:15;;;;;;;6.93;5.20;;;29.80;41.70;;;;;;6219166;28;20443;-76
2021/09/06 09:52:18;;;;;;;7.47;4.70;;;29.90;41.40;;;;;;6220169;28;20428;-75
2021/09/06 09:55:20;;;;;;;6.70;4.88;;;29.90;40.70;;;;;;6230554;28;21093;-75
2021/09/06 09:58:22;;;;;;;7.15;5.38;;;30.00;41.00;;;;;;6246078;28;20492;-76
2021/09/06 10:01:25;;;;;;;7.40;5.60;;;30.20;40.30;;;;;;6242667;28;20494;-76
2021/09/06 10:04:32;;;;;;;6.68;5.20;;;30.50;40.60;;;;;;6213834;28;20548;-75
2021/09/06 10:07:38;;;;;;;8.35;5.72;;;30.50;40.10;;;;;;6222833;28;20443;-75
2021/09/06 10:10:42;;;;;;;6.47;5.10;;;30.50;40.00;;;;;;6222570;28;20425;-76
2021/09/06 10:13:44;;;;;;;7.32;5.78;;;30.80;39.10;;;;;;6222073;28;20443;-75
2021/09/06 10:16:48;;;;;;;9.57;4.80;;;30.90;39.80;;;;;;6221586;28;21082;-75
2021/09/06 10:19:53;;;;;;;8.35;4.80;;;31.10;39.30;;;;;;6204403;28;20821;-76
2021/09/06 10:23:03;;;;;;;6.57;5.80;;;31.10;37.70;;;;;;6197756;28;20429;-75
2021/09/06 10:26:10;;;;;;;9.43;5.83;;;31.30;38.20;;;;;;6197276;28;20418;-76
2021/09/06 10:29:16;;;;;;;5.57;4.97;;;31.40;37.80;;;;;;6198123;28;20434;-76
2021/09/06 10:32:18;;;;;;;7.05;5.30;;;31.70;36.80;;;;;;6210118;28;20504;-76
2021/09/06 10:35:23;;;;;;;6.40;5.15;;;31.90;35.20;;;;;;6213546;28;20477;-76
2021/09/06 10:38:37;;;;;;;6.93;5.43;;;31.80;35.60;;;;;;6222027;28;20417;-76
2021/09/06 10:41:46;;;;;;;8.70;5.72;;;31.90;34.30;;;;;;6221689;28;20530;-76
2021/09/06 10:44:57;;;;;;;6.87;5.27;;;31.90;35.20;;;;;;6222250;28;20429;-75
2021/09/06 10:48:01;;;;;;;6.53;5.25;;;31.90;34.80;;;;;;6221563;28;20762;-76
2021/09/06 10:51:04;;;;;;;5.40;4.90;;;32.30;34.10;;;;;;6221195;28;20421;-76
2021/09/06 10:54:08;;;;;;;5.38;4.88;;;32.60;33.90;;;;;;6221210;28;20423;-76
2021/09/06 10:57:13;;;;;;;5.53;4.53;;;32.80;32.10;;;;;;6223257;28;20436;-76
2021/09/06 11:00:17;;;;;;;5.00;4.55;;;32.50;31.40;;;;;;6222592;28;20421;-76
2021/09/06 11:03:19;;;;;;;6.37;4.60;;;32.10;30.90;;;;;;6215332;28;20423;-75
2021/09/06 11:06:26;;;;;;;6.18;5.18;;;31.80;30.80;;;;;;6219764;28;20500;-76
2021/09/06 11:09:28;;;;;;;6.38;4.60;;;31.60;30.50;;;;;;6221956;28;20440;-76
2021/09/06 11:12:30;;;;;;;6.13;4.90;;;31.30;32.00;;;;;;6220435;28;20796;-76
2021/09/06 11:15:34;;;;;;;4.57;4.15;;;31.40;29.60;;;;;;6219799;28;20507;-76
2021/09/06 11:18:38;;;;;;;4.93;4.53;;;31.20;30.00;;;;;;6216439;28;20427;-76
2021/09/06 11:21:41;;;;;;;4.93;4.43;;;31.50;30.00;;;;;;6200782;28;20577;-76
2021/09/06 11:24:43;;;;;;;5.73;4.70;;;31.90;30.10;;;;;;6196499;28;20578;-76
2021/09/06 11:27:45;;;;;;;8.40;4.87;;;32.20;29.90;;;;;;6196505;28;20426;-76
2021/09/06 11:30:47;;;;;;;5.35;4.65;;;32.20;30.20;;;;;;6196408;28;20498;-76
2021/09/06 11:33:57;;;;;;;6.20;4.15;;;32.20;29.20;;;;;;6212377;28;20456;-77
2021/09/06 11:37:00;;;;;;;7.63;4.22;;;32.10;28.70;;;;;;6220788;28;20443;-76
2021/09/06 11:40:03;;;;;;;5.73;4.20;;;32.00;30.50;;;;;;6220722;28;20508;-77
2021/09/06 11:43:05;;;;;;;4.30;3.90;;;32.30;29.90;;;;;;6220514;28;21040;-77
2021/09/06 11:46:07;;;;;;;6.72;4.75;;;32.20;27.60;;;;;;6220634;28;20514;-77
2021/09/06 11:49:11;;;;;;;5.00;4.30;;;32.40;28.30;;;;;;6221138;28;20436;-77
2021/09/06 11:52:17;;;;;;;5.20;4.00;;;32.50;28.20;;;;;;6220494;28;20480;-77
2021/09/06 11:55:21;;;;;;;5.35;4.75;;;32.30;28.20;;;;;;6219936;28;20937;-77
2021/09/06 11:58:25;;;;;;;5.38;4.22;;;32.20;28.40;;;;;;6220076;28;20447;-76
2021/09/06 12:01:27;;;;;;;5.80;4.15;;;32.20;28.70;;;;;;6219912;28;20973;-76
2021/09/06 12:04:38;;;;;;;4.85;4.35;;;32.50;29.20;;;;;;6211682;28;20984;-76
2021/09/06 12:07:48;;;;;;;6.38;4.88;;;32.70;29.00;;;;;;6220041;28;20421;-76
2021/09/06 12:10:50;;;;;;;6.40;4.43;;;32.90;29.10;;;;;;6218982;28;20503;-77
2021/09/06 12:13:57;;;;;;;5.25;4.60;;;33.30;27.30;;;;;;6219476;28;20909;-76
2021/09/06 12:17:00;;;;;;;5.93;4.73;;;32.80;28.90;;;;;;6219935;28;20934;-76
2021/09/06 12:20:08;;;;;;;4.95;4.47;;;32.60;27.90;;;;;;6213433;28;20910;-76
2021/09/06 12:23:14;;;;;;;4.47;3.90;;;32.50;28.10;;;;;;6217232;28;20413;-77
2021/09/06 12:26:18;;;;;;;5.88;4.07;;;32.30;27.90;;;;;;6219442;28;20831;-77
2021/09/06 12:29:27;;;;;;;4.57;4.18;;;32.00;28.20;;;;;;6216322;28;20437;-77
2021/09/06 12:32:29;;;;;;;7.28;4.60;;;31.90;29.20;;;;;;6209858;28;20424;-77
2021/09/06 12:35:31;;;;;;;4.30;3.90;;;32.00;27.80;;;;;;6211193;28;20416;-76
2021/09/06 12:38:35;;;;;;;5.20;3.95;;;32.30;27.30;;;;;;6219274;28;20448;-77
2021/09/06 12:41:37;;;;;;;4.80;4.18;;;32.90;28.20;;;;;;6219746;28;20563;-77
2021/09/06 12:44:38;;;;;;;6.67;4.43;;;33.00;26.60;;;;;;6219516;28;20489;-77
2021/09/06 12:47:40;;;;;;;5.57;4.40;;;32.90;28.00;;;;;;6219897;28;20929;-77
2021/09/06 12:50:42;;;;;;;7.93;5.35;;;32.80;28.40;;;;;;6218824;28;20510;-76
2021/09/06 12:53:45;;;;;;;5.13;4.60;;;32.90;28.50;;;;;;6219449;28;20514;-77
2021/09/06 12:56:47;;;;;;;8.53;4.63;;;33.30;28.70;;;;;;6244198;22;20501;-80
2021/09/06 12:59:49;;;;;;;5.83;5.13;;;33.70;28.10;;;;;;6253028;28;20415;-80
2021/09/06 13:02:51;;;;;;;6.28;4.45;;;34.30;29.00;;;;;;6251449;28;20417;-80
2021/09/06 13:05:55;;;;;;;5.68;4.95;;;34.70;27.80;;;;;;6247327;28;20407;-80
2021/09/06 13:08:58;;;;;;;5.78;5.18;;;34.30;27.70;;;;;;6251889;28;20435;-80
2021/09/06 13:12:01;;;;;;;6.47;5.03;;;33.70;27.80;;;;;;6250680;28;21566;-81
2021/09/06 13:15:04;;;;;;;6.68;4.82;;;33.20;27.70;;;;;;6250662;28;20975;-80
2021/09/06 13:18:05;;;;;;;8.43;7.30;;;33.10;28.70;;;;;;6252541;28;20916;-81
2021/09/06 13:21:08;;;;;;;5.72;4.60;;;33.40;27.90;;;;;;6242359;28;20440;-80
2021/09/06 13:24:11;;;;;;;4.85;4.35;;;33.00;27.60;;;;;;6227227;28;20413;-80
2021/09/06 13:27:13;;;;;;;6.03;5.43;;;32.70;27.80;;;;;;6231056;28;20503;-80
2021/09/06 13:30:15;;;;;;;5.30;4.63;;;32.30;28.10;;;;;;6234048;28;20829;-80
2021/09/06 13:33:17;;;;;;;4.82;3.95;;;32.00;26.90;;;;;;6240049;28;20885;-80
2021/09/06 13:36:19;;;;;;;5.32;4.75;;;32.20;26.90;;;;;;6254306;28;20502;-83
2021/09/06 13:39:22;;;;;;;6.07;4.82;;;32.30;28.50;;;;;;6258330;28;20419;-80
2021/09/06 13:42:24;;;;;;;5.43;4.85;;;32.60;28.30;;;;;;6259820;28;20435;-80
2021/09/06 13:45:26;;;;;;;5.10;4.60;;;32.80;27.50;;;;;;6261903;28;20488;-80
2021/09/06 13:48:28;;;;;;;6.53;4.07;;;32.90;26.90;;;;;;6261096;28;20497;-80
2021/09/06 13:51:30;;;;;;;5.38;3.97;;;32.90;27.80;;;;;;6256139;28;20488;-78
2021/09/06 13:54:33;;;;;;;4.60;4.05;;;32.90;26.30;;;;;;6254327;28;20414;-78
2021/09/06 13:57:35;;;;;;;7.13;6.45;;;33.10;26.60;;;;;;6259538;28;20466;-79
2021/09/06 14:00:37;;;;;;;7.60;4.80;;;33.10;26.00;;;;;;6260968;28;21098;-80
2021/09/06 14:03:38;;;;;;;7.97;7.22;;;33.10;26.70;;;;;;6244103;28;20984;-80
2021/09/06 14:06:40;;;;;;;12.45;10.13;;;33.20;26.40;;;;;;6259955;28;20442;-79
2021/09/06 14:09:43;;;;;;;5.10;4.60;;;33.60;26.30;;;;;;6238659;28;20438;-81
2021/09/06 14:12:45;;;;;;;7.57;5.20;;;33.90;27.50;;;;;;6209782;28;20474;-80
2021/09/06 14:15:47;;;;;;;5.47;4.97;;;33.80;27.80;;;;;;6209375;28;20445;-80
2021/09/06 14:18:49;;;;;;;6.72;4.68;;;33.40;27.50;;;;;;6237794;28;20455;-80
2021/09/06 14:21:51;;;;;;;6.77;5.23;;;33.10;28.00;;;;;;6253530;28;20487;-81
2021/09/06 14:24:54;;;;;;;8.23;5.05;;;32.80;28.80;;;;;;6216734;28;20442;-80
2021/09/06 14:27:56;;;;;;;5.57;5.05;;;32.70;28.90;;;;;;6208946;28;20488;-81
2021/09/06 14:30:58;;;;;;;7.75;4.85;;;32.50;29.10;;;;;;6210578;28;20516;-80
2021/09/06 14:34:00;;;;;;;5.87;4.60;;;32.30;28.80;;;;;;6238561;28;20422;-79
2021/09/06 14:37:01;;;;;;;6.32;4.75;;;32.10;29.10;;;;;;6259278;28;20430;-80
2021/09/06 14:40:06;;;;;;;5.97;4.70;;;32.00;29.00;;;;;;6260507;28;20415;-80
2021/09/06 14:43:08;;;;;;;6.30;4.80;;;32.10;29.00;;;;;;6259211;28;20534;-80
2021/09/06 14:46:10;;;;;;;7.85;4.82;;;32.40;29.00;;;;;;6258867;28;20481;-80
2021/09/06 14:49:12;;;;;;;7.03;5.10;;;32.50;28.60;;;;;;6259019;28;20431;-80
2021/09/06 14:52:14;;;;;;;6.28;5.28;;;32.20;28.50;;;;;;6254675;28;20478;-80
2021/09/06 14:55:17;;;;;;;6.72;4.82;;;32.20;28.70;;;;;;6256306;28;20415;-80
2021/09/06 14:58:19;;;;;;;16.60;5.40;;;32.30;28.80;;;;;;6256829;28;20908;-80
2021/09/06 15:01:21;;;;;;;6.75;5.03;;;32.20;29.00;;;;;;6256859;28;20527;-80
2021/09/06 15:04:23;;;;;;;5.90;5.10;;;32.00;29.10;;;;;;6220796;28;20426;-80
2021/09/06 15:07:25;;;;;;;5.28;4.78;;;31.70;29.50;;;;;;6232541;28;20423;-80
2021/09/06 15:10:28;;;;;;;4.95;4.55;;;31.70;29.50;;;;;;6210797;28;20422;-80
2021/09/06 15:13:30;;;;;;;6.78;5.15;;;31.50;29.90;;;;;;6219129;28;20436;-80
2021/09/06 15:16:31;;;;;;;8.43;5.07;;;31.20;29.90;;;;;;6230044;28;20437;-80
2021/09/06 15:19:33;;;;;;;8.33;5.43;;;31.10;30.70;;;;;;6199599;28;20442;-80
2021/09/06 15:22:36;;;;;;;7.28;4.70;;;31.00;30.30;;;;;;6200573;28;20449;-78
2021/09/06 15:25:39;;;;;;;8.32;4.95;;;30.80;30.20;;;;;;6208567;28;20447;-79
2021/09/06 15:28:41;;;;;;;7.18;5.30;;;30.60;31.70;;;;;;6223668;28;20440;-78
2021/09/06 15:31:45;;;;;;;10.55;9.55;;;30.40;32.50;;;;;;6217819;28;20513;-79
2021/09/06 15:34:47;;;;;;;6.43;5.22;;;30.30;32.60;;;;;;6238677;28;20923;-79
2021/09/06 15:37:54;;;;;;;8.05;5.18;;;30.30;32.50;;;;;;6246153;28;20536;-78
2021/09/06 15:40:59;;;;;;;7.22;5.15;;;30.30;31.40;;;;;;6223654;28;20443;-78
2021/09/06 15:44:00;;;;;;;11.57;5.97;;;30.20;33.00;;;;;;6223100;28;20423;-80
2021/09/06 15:47:02;;;;;;;11.23;5.90;;;30.10;32.50;;;;;;6222915;28;20460;-79